Time;durP1;ratioP1;P1;durP2;ratioP2;P2;SDS_P1;SDS_P2;PMS_P1;PMS_P2;Temp;Humidity;BMP_temperature;BMP_pressure;BME280_temperature;BME280_humidity;BME280_pressure;Samples;Min_cycle;Max_cycle;Signal;HPM_P1;HPM_P2
2021/07/13 00:01:50;;;;;;;12.63;10.88;;;;;;;22.03;60.38;99290.41;4377699;32;35255;-87
2021/07/13 00:04:16;;;;;;;13.65;11.77;;;;;;;22.21;60.39;99286.16;4378743;32;20118;-87
2021/07/13 00:06:41;;;;;;;12.45;11.15;;;;;;;22.03;60.38;99288.59;4391858;32;30614;-87
2021/07/13 00:09:06;;;;;;;12.55;11.25;;;;;;;21.85;60.36;99295.47;4379150;32;20162;-86
2021/07/13 00:11:32;;;;;;;12.73;11.00;;;;;;;22.15;60.38;99289.34;4397459;32;20136;-87
2021/07/13 00:13:57;;;;;;;14.90;12.10;;;;;;;21.89;60.37;99296.88;4396349;32;29622;-87
2021/07/13 00:16:23;;;;;;;12.93;11.48;;;;;;;21.86;60.36;99291.84;4395244;32;35712;-87
2021/07/13 00:18:48;;;;;;;14.10;11.80;;;;;;;21.85;60.36;99294.63;4378104;32;22396;-87
2021/07/13 00:21:13;;;;;;;14.00;11.48;;;;;;;21.87;60.36;99290.03;4377652;32;33075;-86
2021/07/13 00:23:39;;;;;;;13.43;10.88;;;;;;;21.75;60.36;99290.09;4376925;32;30234;-86
2021/07/13 00:26:04;;;;;;;16.75;11.32;;;;;;;21.82;60.36;99298.38;4389956;32;20157;-85
2021/07/13 00:28:30;;;;;;;15.90;11.90;;;;;;;21.90;60.37;99295.06;4390328;32;20117;-86
2021/07/13 00:30:55;;;;;;;12.73;11.07;;;;;;;21.99;60.37;99297.75;4391415;32;20124;-86
2021/07/13 00:33:21;;;;;;;13.57;11.20;;;;;;;21.89;60.37;99296.88;4376865;32;34024;-87
2021/07/13 00:35:46;;;;;;;13.55;11.52;;;;;;;21.90;60.37;99290.59;4364042;32;36447;-87
2021/07/13 00:38:11;;;;;;;15.80;11.90;;;;;;;21.85;60.36;99289.31;4389737;32;20134;-87
2021/07/13 00:40:37;;;;;;;14.30;12.07;;;;;;;21.87;60.36;99284.72;4389921;32;20098;-86
2021/07/13 00:43:02;;;;;;;14.30;11.25;;;;;;;21.73;60.35;99281.44;4376388;32;35965;-86
2021/07/13 00:45:28;;;;;;;17.35;11.77;;;;;;;21.78;60.36;99282.88;4364801;32;20154;-86
2021/07/13 00:47:53;;;;;;;12.40;11.10;;;;;;;21.78;60.36;99274.94;4377213;32;20169;-86
2021/07/13 00:50:20;;;;;;;15.70;11.93;;;;;;;21.75;60.36;99274.19;4389761;32;20078;-86
2021/07/13 00:52:46;;;;;;;14.38;11.90;;;;;;;21.73;60.36;99275.31;4391052;32;20136;-86
2021/07/13 00:55:14;;;;;;;13.65;12.30;;;;;;;21.73;60.36;99273.50;4377233;32;20114;-86
2021/07/13 00:57:40;;;;;;;13.30;11.20;;;;;;;21.65;60.36;99272.47;4365642;32;20697;-86
2021/07/13 01:00:08;;;;;;;13.40;11.65;;;;;;;21.66;60.36;99282.09;4379051;32;20098;-86
2021/07/13 01:02:34;;;;;;;14.40;11.90;;;;;;;21.68;60.35;99278.34;4392712;32;20125;-86
2021/07/13 01:05:00;;;;;;;15.63;11.82;;;;;;;21.64;60.36;99276.94;4392861;32;20126;-85
2021/07/13 01:07:47;;;;;;;16.92;13.00;;;;;;;21.56;60.34;99287.34;4366507;32;20553;-87
2021/07/13 01:10:52;;;;;;;14.52;11.60;;;;;;;21.61;60.35;99284.31;4391754;32;20085;-87
2021/07/13 01:13:39;;;;;;;14.07;12.57;;;;;;;21.62;60.35;99272.75;4301676;33;20109;-87
2021/07/13 01:16:24;;;;;;;13.55;10.80;;;;;;;21.64;60.36;99282.25;4301290;33;20220;-86
2021/07/13 01:18:54;;;;;;;14.15;12.10;;;;;;;21.46;60.34;99275.84;4358855;32;20116;-86
2021/07/13 01:21:32;;;;;;;15.95;11.70;;;;;;;21.38;60.34;99276.50;4379115;32;20090;-86
2021/07/13 01:24:12;;;;;;;17.33;12.05;;;;;;;21.67;60.35;99273.19;4379008;32;20902;-86
2021/07/13 01:26:44;;;;;;;13.98;12.30;;;;;;;21.40;60.34;99271.06;4378915;32;20229;-87
2021/07/13 01:29:11;;;;;;;17.35;13.05;;;;;;;21.37;60.34;99274.81;4392692;32;20086;-87
2021/07/13 01:31:38;;;;;;;13.65;11.65;;;;;;;21.28;60.33;99270.28;4379004;32;20451;-86
2021/07/13 01:34:05;;;;;;;14.82;12.98;;;;;;;21.27;60.34;99267.75;4379021;32;20180;-87
2021/07/13 01:36:32;;;;;;;14.85;12.52;;;;;;;21.31;60.33;99267.41;4378661;32;20114;-88
2021/07/13 01:38:59;;;;;;;14.07;12.20;;;;;;;21.30;60.33;99260.44;4378681;32;20212;-88
2021/07/13 01:41:24;;;;;;;14.07;11.95;;;;;;;21.30;60.33;99254.31;4378750;32;20103;-88
2021/07/13 01:43:50;;;;;;;15.20;13.10;;;;;;;21.27;60.34;99251.88;4378839;32;20102;-87
2021/07/13 01:46:15;;;;;;;15.57;13.73;;;;;;;21.23;60.33;99258.38;4378662;32;20687;-87
2021/07/13 01:48:41;;;;;;;16.65;12.73;;;;;;;21.23;60.33;99253.91;4378608;32;20182;-88
2021/07/13 01:51:07;;;;;;;14.75;12.77;;;;;;;21.23;60.33;99258.38;4366228;32;20500;-87
2021/07/13 01:53:32;;;;;;;14.45;12.15;;;;;;;21.08;60.32;99253.41;4378413;32;20156;-87
2021/07/13 01:55:58;;;;;;;14.85;12.37;;;;;;;21.08;60.33;99249.94;4378648;32;20956;-87
2021/07/13 01:58:25;;;;;;;18.02;12.52;;;;;;;21.16;60.32;99250.12;4378422;32;20120;-87
2021/07/13 02:00:54;;;;;;;14.48;12.98;;;;;;;21.14;60.32;99247.59;4391188;32;20102;-87
2021/07/13 02:03:23;;;;;;;17.77;13.95;;;;;;;21.15;60.32;99253.72;4391339;32;20110;-87
2021/07/13 02:05:48;;;;;;;15.77;13.25;;;;;;;21.07;60.32;99246.44;4378553;32;20176;-88
2021/07/13 02:08:13;;;;;;;14.63;12.75;;;;;;;21.21;60.33;99257.66;4378059;32;20126;-87
2021/07/13 02:10:39;;;;;;;16.92;13.95;;;;;;;21.06;60.32;99250.06;4378636;32;20101;-86
2021/07/13 02:13:06;;;;;;;16.75;13.88;;;;;;;20.87;60.32;99249.91;4378569;32;20136;-88
2021/07/13 02:15:32;;;;;;;15.95;13.23;;;;;;;20.86;60.32;99248.22;4378831;32;20460;-87
2021/07/13 02:17:57;;;;;;;17.25;13.48;;;;;;;20.87;60.32;99247.25;4391837;32;22142;-86
2021/07/13 02:20:24;;;;;;;14.70;13.10;;;;;;;20.96;60.31;99248.28;4365723;32;20162;-87
2021/07/13 02:22:50;;;;;;;17.48;14.38;;;;;;;20.93;60.31;99245.91;4392474;32;20090;-87
2021/07/13 02:25:15;;;;;;;21.30;13.75;;;;;;;20.83;60.30;99244.03;4378520;32;20186;-88
2021/07/13 02:27:42;;;;;;;15.90;13.48;;;;;;;20.95;60.32;99241.31;4378496;32;20120;-87
2021/07/13 02:30:08;;;;;;;15.73;12.93;;;;;;;20.94;60.31;99244.94;4378548;32;20078;-86
2021/07/13 02:32:49;;;;;;;15.70;13.68;;;;;;;20.95;60.32;99250.09;4378449;32;20125;-86
2021/07/13 02:35:15;;;;;;;17.40;15.07;;;;;;;20.98;60.32;99247.19;4390729;32;20495;-86
2021/07/13 02:37:41;;;;;;;17.23;15.43;;;;;;;20.98;60.32;99251.63;4378119;32;20095;-86
2021/07/13 02:40:11;;;;;;;22.42;14.13;;;;;;;20.97;60.32;99253.44;4378484;32;20158;-86
2021/07/13 02:42:36;;;;;;;18.83;14.75;;;;;;;20.97;60.32;99250.81;4390743;32;20110;-88
2021/07/13 02:45:02;;;;;;;17.08;13.75;;;;;;;20.92;60.31;99250.34;4390374;32;25157;-88
2021/07/13 02:47:27;;;;;;;14.35;12.85;;;;;;;20.84;60.30;99252.78;4392181;32;20114;-87
2021/07/13 02:49:53;;;;;;;16.85;13.25;;;;;;;20.91;60.31;99246.03;4378296;32;20112;-87
2021/07/13 02:52:23;;;;;;;16.52;13.68;;;;;;;20.81;60.31;99247.72;4392290;32;20142;-87
2021/07/13 02:54:49;;;;;;;;;;;;;;;20.79;60.31;99252.31;4378594;32;20102;-88
2021/07/13 02:57:14;;;;;;;16.58;14.65;;;;;;;20.89;60.31;99253.25;4378293;32;19996;-88
2021/07/13 02:59:40;;;;;;;17.05;13.02;;;;;;;20.95;60.32;99252.75;4377723;32;27602;-89
2021/07/13 03:02:05;;;;;;;15.63;13.35;;;;;;;20.96;60.32;99261.50;4378230;32;20102;-88
2021/07/13 03:04:31;;;;;;;15.52;13.45;;;;;;;20.99;60.32;99269.19;4378161;32;20085;-88
2021/07/13 03:06:56;;;;;;;17.55;14.00;;;;;;;20.91;60.31;99256.59;4391167;32;20108;-88
2021/07/13 03:09:22;;;;;;;18.12;14.02;;;;;;;20.91;60.31;99264.53;4378594;32;20133;-88
2021/07/13 03:11:47;;;;;;;18.35;13.62;;;;;;;20.96;60.31;99253.56;4378463;32;25950;-88
2021/07/13 03:14:13;;;;;;;16.05;14.07;;;;;;;21.03;60.32;99258.22;4379256;32;20158;-88
2021/07/13 03:16:38;;;;;;;15.75;13.95;;;;;;;20.99;60.32;99248.88;4379196;32;20099;-89
2021/07/13 03:19:04;;;;;;;15.70;13.62;;;;;;;21.02;60.32;99251.25;4383917;32;20143;-88
2021/07/13 03:21:31;;;;;;;15.65;13.65;;;;;;;21.06;60.32;99244.75;4399137;32;20160;-88
2021/07/13 03:23:59;;;;;;;18.33;13.68;;;;;;;21.15;60.32;99249.28;4383285;32;20106;-87
2021/07/13 03:26:27;;;;;;;15.57;13.40;;;;;;;21.06;60.32;99249.22;4379285;32;20618;-87
2021/07/13 03:28:53;;;;;;;18.80;16.00;;;;;;;21.01;60.31;99246.94;4366017;32;20435;-86
2021/07/13 03:31:18;;;;;;;18.92;14.98;;;;;;;21.11;60.33;99247.88;4377694;32;20146;-87
2021/07/13 03:33:44;;;;;;;14.80;13.30;;;;;;;21.19;60.33;99233.13;4377567;32;22471;-87
2021/07/13 03:36:09;;;;;;;17.98;14.80;;;;;;;21.23;60.33;99245.13;4377706;32;20208;-87
2021/07/13 03:38:34;;;;;;;17.62;14.65;;;;;;;21.34;60.34;99245.13;4377872;32;20443;-87
2021/07/13 03:41:01;;;;;;;18.50;14.48;;;;;;;21.39;60.34;99237.63;4378061;32;20431;-87
2021/07/13 03:43:27;;;;;;;18.48;14.70;;;;;;;21.47;60.34;99236.97;4378257;32;20105;-87
2021/07/13 03:45:52;;;;;;;18.75;15.23;;;;;;;21.54;60.34;99235.50;4378023;32;20153;-88
2021/07/13 03:48:18;;;;;;;20.70;14.70;;;;;;;21.62;60.35;99236.50;4365190;32;20142;-87
2021/07/13 03:50:43;;;;;;;17.70;14.20;;;;;;;21.83;60.36;99228.53;4377671;32;20146;-88
2021/07/13 03:53:08;;;;;;;17.30;13.20;;;;;;;21.91;60.36;99233.97;4377848;32;20170;-88
2021/07/13 03:55:34;;;;;;;14.18;12.43;;;;;;;22.06;60.37;99237.16;4377457;32;22004;-89
2021/07/13 03:57:59;;;;;;;17.12;13.50;;;;;;;22.14;60.38;99237.31;4377601;32;20452;-89
2021/07/13 04:00:29;;;;;;;14.80;13.13;;;;;;;22.26;60.37;99240.72;4389692;32;23796;-88
2021/07/13 04:02:55;;;;;;;14.63;13.10;;;;;;;22.31;60.38;99227.88;4378004;32;20113;-87
2021/07/13 04:05:20;;;;;;;16.98;13.82;;;;;;;22.53;60.39;99232.94;4390295;32;20094;-88
2021/07/13 04:07:46;;;;;;;19.52;13.70;;;;;;;22.56;60.39;99232.66;4391020;32;22545;-87
2021/07/13 04:10:12;;;;;;;17.20;12.07;;;;;;;22.53;60.40;99234.75;4377609;32;20531;-85
2021/07/13 04:12:38;;;;;;;15.30;13.48;;;;;;;22.81;60.41;99233.97;4377828;32;20544;-87
2021/07/13 04:15:04;;;;;;;18.17;14.70;;;;;;;22.93;60.42;99229.34;4377545;32;20181;-86
2021/07/13 04:17:30;;;;;;;20.17;14.00;;;;;;;22.91;60.42;99231.31;4391316;32;20168;-87
2021/07/13 04:19:55;;;;;;;16.67;14.50;;;;;;;22.94;60.41;99231.84;4389294;32;30038;-87
2021/07/13 04:22:21;;;;;;;15.60;13.57;;;;;;;23.01;60.42;99241.94;4389885;32;20484;-86
2021/07/13 04:24:46;;;;;;;18.05;13.80;;;;;;;22.99;60.42;99241.25;4391026;32;20153;-86
2021/07/13 04:27:11;;;;;;;19.20;14.15;;;;;;;23.16;60.43;99243.16;4389287;32;24696;-87
2021/07/13 04:29:37;;;;;;;20.15;13.93;;;;;;;23.23;60.43;99250.44;4390993;32;20205;-87
2021/07/13 04:32:02;;;;;;;19.40;14.57;;;;;;;23.34;60.42;99251.25;4389846;32;20511;-87
2021/07/13 04:34:29;;;;;;;16.23;13.93;;;;;;;23.53;60.45;99246.75;4393012;32;20114;-86
2021/07/13 04:36:54;;;;;;;21.37;15.38;;;;;;;23.74;60.46;99249.25;4379148;32;20094;-87
2021/07/13 04:39:19;;;;;;;17.10;14.68;;;;;;;23.82;60.47;99245.84;4378118;32;36710;-87
2021/07/13 04:41:45;;;;;;;18.75;15.30;;;;;;;23.94;60.47;99241.22;4379024;32;20162;-87
2021/07/13 04:44:10;;;;;;;19.33;15.18;;;;;;;24.05;60.47;99244.50;4392248;32;26518;-86
2021/07/13 04:46:36;;;;;;;18.50;14.98;;;;;;;24.20;60.48;99236.88;4378498;32;20157;-86
2021/07/13 04:49:01;;;;;;;19.50;15.00;;;;;;;24.35;60.48;99239.87;4393405;32;20748;-87
2021/07/13 04:51:26;;;;;;;18.77;15.30;;;;;;;24.52;60.49;99232.94;4379843;32;20119;-86
2021/07/13 04:53:52;;;;;;;20.88;15.93;;;;;;;24.70;60.51;99231.13;4393449;32;20121;-87
2021/07/13 04:56:17;;;;;;;20.98;15.73;;;;;;;24.90;60.51;99230.00;4393014;32;20440;-85
2021/07/13 04:58:43;;;;;;;19.75;15.65;;;;;;;25.13;60.52;99235.72;4368031;32;20115;-85
2021/07/13 05:01:09;;;;;;;17.85;15.88;;;;;;;25.34;60.54;99233.53;4404305;32;20157;-84
2021/07/13 05:03:34;;;;;;;19.30;16.00;;;;;;;25.48;60.55;99232.13;4394774;32;20106;-85
2021/07/13 05:05:59;;;;;;;19.02;15.07;;;;;;;25.46;60.54;99230.63;4392700;32;20518;-85
2021/07/13 05:08:25;;;;;;;21.45;14.63;;;;;;;25.68;60.55;99233.63;4391203;32;20148;-85
2021/07/13 05:10:51;;;;;;;17.12;14.87;;;;;;;25.79;60.56;99235.19;4379276;32;20581;-86
2021/07/13 05:13:16;;;;;;;21.87;15.95;;;;;;;25.87;60.57;99234.41;4391578;32;20086;-85
2021/07/13 05:15:41;;;;;;;17.65;15.27;;;;;;;25.99;60.57;99223.25;4392551;32;20241;-85
2021/07/13 05:18:08;;;;;;;19.98;15.57;;;;;;;26.03;60.57;99226.47;4378622;32;20095;-85
2021/07/13 05:20:34;;;;;;;16.87;14.98;;;;;;;26.19;60.59;99226.53;4391470;32;20161;-85
2021/07/13 05:23:06;;;;;;;18.55;15.10;;;;;;;26.28;60.58;99224.72;4378825;32;20106;-86
2021/07/13 05:25:31;;;;;;;26.50;15.45;;;;;;;26.38;60.59;99227.28;4392742;32;20120;-85
2021/07/13 05:27:57;;;;;;;24.50;15.63;;;;;;;26.48;60.59;99211.94;4378711;32;20539;-86
2021/07/13 05:30:23;;;;;;;18.35;16.00;;;;;;;26.57;60.60;99217.16;4392199;32;20396;-85
2021/07/13 05:32:50;;;;;;;18.90;15.05;;;;;;;26.52;60.60;99218.66;4378724;32;20086;-85
2021/07/13 05:35:16;;;;;;;22.42;15.38;;;;;;;26.56;60.59;99214.66;4378722;32;20455;-86
2021/07/13 05:37:41;;;;;;;18.45;16.45;;;;;;;26.55;60.59;99215.66;4390270;32;22165;-86
2021/07/13 05:40:07;;;;;;;17.40;14.63;;;;;;;26.71;60.60;99213.00;4378044;32;20256;-86
2021/07/13 05:42:32;;;;;;;18.05;15.57;;;;;;;26.82;60.61;99209.19;4391946;32;20198;-86
2021/07/13 05:44:59;;;;;;;20.33;16.55;;;;;;;27.00;60.62;99212.56;4377727;32;30867;-87
2021/07/13 05:47:25;;;;;;;23.02;15.68;;;;;;;26.89;60.62;99212.84;4378573;32;20392;-85
2021/07/13 05:49:50;;;;;;;21.98;16.20;;;;;;;27.03;60.62;99217.56;4365728;32;20130;-86
2021/07/13 05:52:16;;;;;;;19.40;16.70;;;;;;;26.96;60.63;99224.53;4378655;32;20177;-85
2021/07/13 05:54:42;;;;;;;22.27;16.67;;;;;;;27.01;60.62;99224.91;4378540;32;20201;-85
2021/07/13 05:57:07;;;;;;;18.85;16.17;;;;;;;27.06;60.63;99235.94;4378412;32;20524;-86
2021/07/13 05:59:32;;;;;;;20.88;15.68;;;;;;;27.14;60.63;99225.22;4378261;32;20519;-86
2021/07/13 06:01:58;;;;;;;19.20;15.90;;;;;;;27.16;60.63;99233.06;4378612;32;20142;-86
2021/07/13 06:04:23;;;;;;;23.73;15.85;;;;;;;27.24;60.63;99233.09;4378533;32;20185;-85
2021/07/13 06:06:48;;;;;;;20.00;15.63;;;;;;;27.27;60.63;99234.59;4392153;32;20334;-86
2021/07/13 06:09:14;;;;;;;23.08;15.82;;;;;;;27.40;60.65;99233.06;4392382;32;20169;-86
2021/07/13 06:11:39;;;;;;;21.45;15.18;;;;;;;27.40;60.65;99235.72;4390309;32;34219;-87
2021/07/13 06:14:05;;;;;;;17.90;15.35;;;;;;;27.63;60.65;99230.53;4392299;32;20118;-87
2021/07/13 06:16:30;;;;;;;19.98;15.55;;;;;;;27.77;60.66;99227.19;4391895;32;20162;-86
2021/07/13 06:18:55;;;;;;;18.90;15.00;;;;;;;27.83;60.67;99226.47;4392241;32;20118;-86
2021/07/13 06:21:21;;;;;;;18.50;15.40;;;;;;;27.88;60.67;99230.47;4378297;32;20197;-86
2021/07/13 06:23:46;;;;;;;19.85;15.68;;;;;;;27.96;60.67;99227.78;4391856;32;23858;-86
2021/07/13 06:26:12;;;;;;;23.27;15.48;;;;;;;27.93;60.67;99230.81;4378679;32;20161;-86
2021/07/13 06:28:37;;;;;;;23.87;15.63;;;;;;;28.12;60.68;99219.69;4378198;32;20182;-86
2021/07/13 06:31:03;;;;;;;17.42;15.60;;;;;;;28.22;60.68;99214.97;4392438;32;20130;-86
2021/07/13 06:33:28;;;;;;;23.73;15.38;;;;;;;28.42;60.70;99223.44;4397895;32;20086;-86
2021/07/13 06:35:54;;;;;;;24.35;15.25;;;;;;;28.59;60.70;99227.66;4397159;32;20122;-86
2021/07/13 06:38:19;;;;;;;19.17;15.50;;;;;;;28.81;60.72;99223.31;4397307;32;20124;-87
2021/07/13 06:40:45;;;;;;;22.60;15.73;;;;;;;28.90;60.71;99218.78;4392517;32;20145;-86
2021/07/13 06:43:10;;;;;;;19.58;15.52;;;;;;;29.01;60.72;99208.47;4392309;32;20501;-86
2021/07/13 06:45:36;;;;;;;20.70;15.23;;;;;;;29.23;60.73;99214.81;4378408;32;20472;-87
2021/07/13 06:48:01;;;;;;;21.30;14.60;;;;;;;29.31;60.74;99209.34;4378486;32;20118;-86
2021/07/13 06:50:26;;;;;;;16.35;14.63;;;;;;;29.50;60.75;99200.00;4392299;32;20090;-86
2021/07/13 06:52:52;;;;;;;16.87;14.43;;;;;;;29.79;60.76;99199.16;4392136;32;20130;-86
2021/07/13 06:55:18;;;;;;;17.25;13.82;;;;;;;30.04;60.77;99196.22;4377329;32;20147;-84
2021/07/13 06:57:43;;;;;;;14.63;13.18;;;;;;;30.16;60.78;99200.09;4378074;32;20098;-84
2021/07/13 07:00:09;;;;;;;27.80;13.07;;;;;;;30.26;60.79;99192.56;4390478;32;20764;-84
2021/07/13 07:02:35;;;;;;;17.45;13.75;;;;;;;30.50;60.80;99202.13;4392158;32;20113;-84
2021/07/13 07:05:00;;;;;;;20.05;14.05;;;;;;;30.62;60.81;99200.63;4392061;32;20419;-84
2021/07/13 07:07:26;;;;;;;21.23;14.15;;;;;;;30.75;60.81;99195.38;4391582;32;21499;-85
2021/07/13 07:09:51;;;;;;;18.80;13.00;;;;;;;30.72;60.81;99197.62;4391615;32;20396;-86
2021/07/13 07:12:16;;;;;;;15.98;12.65;;;;;;;30.72;60.81;99190.38;4390651;32;20110;-85
2021/07/13 07:14:42;;;;;;;15.27;12.63;;;;;;;30.73;60.81;99199.28;4377846;32;20372;-85
2021/07/13 07:17:07;;;;;;;16.50;12.95;;;;;;;30.77;60.82;99196.03;4377998;32;20177;-85
2021/07/13 07:19:33;;;;;;;14.80;12.82;;;;;;;30.90;60.82;99189.94;4390258;32;20382;-86
2021/07/13 07:21:58;;;;;;;16.20;12.23;;;;;;;31.01;60.83;99193.97;4377952;32;20151;-85
2021/07/13 07:24:23;;;;;;;18.45;11.65;;;;;;;31.13;60.83;99185.19;4378017;32;20137;-85
2021/07/13 07:26:49;;;;;;;16.30;11.38;;;;;;;31.18;60.84;99192.69;4392141;32;20166;-86
2021/07/13 07:29:14;;;;;;;14.18;11.80;;;;;;;31.20;60.83;99193.31;4377619;32;22377;-85
2021/07/13 07:31:40;;;;;;;12.15;10.20;;;;;;;31.34;60.85;99189.72;4378079;32;20499;-85
2021/07/13 07:34:05;;;;;;;16.10;10.60;;;;;;;31.60;60.86;99191.75;4378117;32;20154;-85
2021/07/13 07:36:30;;;;;;;11.38;10.27;;;;;;;31.63;60.86;99182.44;4391294;32;21277;-85
2021/07/13 07:38:56;;;;;;;14.98;10.75;;;;;;;31.72;60.87;99190.22;4391826;32;20135;-86
2021/07/13 07:41:21;;;;;;;13.40;9.98;;;;;;;31.81;60.87;99182.78;4377672;32;20521;-85
2021/07/13 07:43:47;;;;;;;13.38;9.68;;;;;;;31.91;60.88;99187.78;4390401;32;20176;-86
2021/07/13 07:46:13;;;;;;;17.12;9.68;;;;;;;31.99;60.88;99182.25;4378023;32;20380;-86
2021/07/13 07:48:38;;;;;;;14.87;9.65;;;;;;;32.26;60.89;99183.22;4390126;32;20181;-86
2021/07/13 07:51:03;;;;;;;10.25;9.15;;;;;;;32.26;60.89;99191.28;4377330;32;22562;-85
2021/07/13 07:53:29;;;;;;;12.35;9.50;;;;;;;32.38;60.90;99184.28;4377415;32;20581;-85
2021/07/13 07:55:55;;;;;;;15.57;9.93;;;;;;;32.61;60.91;99184.75;4377778;32;20518;-85
2021/07/13 07:58:20;;;;;;;12.30;8.75;;;;;;;32.71;60.92;99180.84;4377508;32;20156;-84
2021/07/13 08:00:46;;;;;;;12.07;8.93;;;;;;;32.99;60.93;99181.50;4391671;32;20145;-84
2021/07/13 08:03:12;;;;;;;11.88;8.95;;;;;;;33.20;60.94;99180.47;4391580;32;20440;-84
2021/07/13 08:05:38;;;;;;;12.45;9.27;;;;;;;33.24;60.93;99174.44;4390135;32;20149;-84
2021/07/13 08:08:03;;;;;;;13.60;8.35;;;;;;;33.46;60.95;99168.84;4390185;32;20108;-84
2021/07/13 08:10:29;;;;;;;14.55;8.95;;;;;;;33.69;60.97;99157.56;4390208;32;20121;-84
2021/07/13 08:12:54;;;;;;;14.02;7.87;;;;;;;33.70;60.96;99165.44;4391151;32;20386;-84
2021/07/13 08:15:20;;;;;;;13.62;8.57;;;;;;;33.74;60.97;99171.25;4389918;32;22164;-84
2021/07/13 08:17:46;;;;;;;14.07;9.40;;;;;;;33.74;60.97;99163.97;4391491;32;20090;-84
2021/07/13 08:20:13;;;;;;;12.13;8.23;;;;;;;33.57;60.96;99171.69;4391529;32;20162;-84
2021/07/13 08:22:39;;;;;;;11.12;8.90;;;;;;;33.71;60.96;99164.41;4391412;32;20129;-84
2021/07/13 08:25:05;;;;;;;12.40;9.05;;;;;;;33.88;60.97;99162.09;4390226;32;20168;-84
2021/07/13 08:27:30;;;;;;;14.15;9.00;;;;;;;34.00;60.98;99160.38;4377401;32;20094;-84
2021/07/13 08:29:56;;;;;;;11.25;9.00;;;;;;;34.27;60.98;99155.66;4390950;32;20152;-84
2021/07/13 08:32:22;;;;;;;11.98;9.02;;;;;;;34.40;61.00;99150.22;4391210;32;20110;-83
2021/07/13 08:34:47;;;;;;;10.32;8.60;;;;;;;34.59;61.01;99148.44;4389543;32;20158;-84
2021/07/13 08:37:13;;;;;;;9.20;8.30;;;;;;;34.71;61.02;99145.84;4377189;32;20613;-84
2021/07/13 08:39:38;;;;;;;15.07;8.77;;;;;;;34.75;61.02;99153.28;4391204;32;20373;-84
2021/07/13 08:42:04;;;;;;;10.70;8.70;;;;;;;35.16;61.03;99151.12;4389780;32;20605;-84
2021/07/13 08:44:30;;;;;;;11.90;8.55;;;;;;;35.43;61.04;99140.88;4389723;32;20110;-84
2021/07/13 08:46:56;;;;;;;15.30;8.88;;;;;;;35.73;61.06;99139.09;4389595;32;20141;-83
2021/07/13 08:49:21;;;;;;;12.32;9.02;;;;;;;35.90;61.08;99140.16;4390285;32;27866;-84
2021/07/13 08:51:47;;;;;;;9.90;7.95;;;;;;;35.80;61.06;99139.03;4377235;32;20175;-84
2021/07/13 08:54:13;;;;;;;12.18;8.07;;;;;;;35.95;61.07;99131.34;4391034;32;20160;-84
2021/07/13 08:56:38;;;;;;;11.85;8.70;;;;;;;36.01;61.08;99127.75;4371242;32;32004;-84
2021/07/13 08:59:04;;;;;;;10.98;8.25;;;;;;;36.14;61.08;99130.25;4384695;32;20142;-86
2021/07/13 09:01:31;;;;;;;12.95;8.30;;;;;;;36.30;61.09;99128.78;4361177;32;20095;-85
2021/07/13 09:04:06;;;;;;;8.52;7.75;;;;;;;36.32;61.10;99128.59;4384682;32;20149;-84
2021/07/13 09:06:52;;;;;;;9.95;8.07;;;;;;;36.48;61.11;99134.19;4361023;32;20095;-84
2021/07/13 09:09:26;;;;;;;12.50;7.95;;;;;;;36.62;61.12;99123.94;4372120;32;20099;-84
2021/07/13 09:12:08;;;;;;;17.37;9.00;;;;;;;36.77;61.11;99124.34;4384586;32;20707;-85
2021/07/13 09:14:54;;;;;;;9.63;7.97;;;;;;;36.99;61.13;99132.75;4384432;32;20477;-85
2021/07/13 09:17:39;;;;;;;9.13;8.23;;;;;;;36.84;61.12;99127.78;4360983;32;20094;-85
2021/07/13 09:20:12;;;;;;;11.60;8.13;;;;;;;36.81;61.13;99125.53;4363247;32;20083;-85
2021/07/13 09:22:54;;;;;;;10.00;8.50;;;;;;;36.87;61.12;99126.47;4362842;32;20155;-85
2021/07/13 09:25:22;;;;;;;11.93;8.32;;;;;;;37.01;61.13;99137.94;4362872;32;20137;-85
2021/07/13 09:28:17;;;;;;;10.57;8.93;;;;;;;37.08;61.14;99127.78;4362740;32;20545;-85
2021/07/13 09:30:53;;;;;;;10.02;8.02;;;;;;;37.02;61.13;99129.56;4362858;32;20169;-85
2021/07/13 09:33:25;;;;;;;13.13;8.15;;;;;;;36.80;61.12;99132.03;4362952;32;20484;-84
2021/07/13 09:36:09;;;;;;;11.88;8.23;;;;;;;36.81;61.13;99130.13;4362764;32;20102;-84
2021/07/13 09:38:38;;;;;;;9.25;8.23;;;;;;;37.12;61.14;99124.37;4362515;32;20087;-85
2021/07/13 09:41:17;;;;;;;11.43;8.20;;;;;;;37.26;61.14;99135.03;4362792;32;20078;-85
2021/07/13 09:43:52;;;;;;;9.85;8.35;;;;;;;37.18;61.14;99131.59;4386368;32;20122;-84
2021/07/13 09:46:24;;;;;;;11.07;9.02;;;;;;;37.30;61.15;99131.59;4386513;32;20388;-84
2021/07/13 09:49:16;;;;;;;10.48;8.50;;;;;;;37.43;61.15;99130.53;4386415;32;20756;-84
2021/07/13 09:52:02;;;;;;;10.05;8.45;;;;;;;37.34;61.15;99138.19;4361838;32;20091;-85
2021/07/13 09:54:46;;;;;;;10.40;8.60;;;;;;;37.52;61.15;99126.38;4383240;32;20643;-85
2021/07/13 09:57:14;;;;;;;9.05;8.02;;;;;;;37.58;61.16;99130.00;4376144;32;20102;-84
2021/07/13 09:59:39;;;;;;;17.73;9.10;;;;;;;37.64;61.16;99135.34;4391321;32;20132;-85
2021/07/13 10:02:06;;;;;;;11.27;8.00;;;;;;;37.87;61.18;99129.06;4378721;32;20456;-85
2021/07/13 10:04:32;;;;;;;9.20;8.27;;;;;;;38.04;61.18;99134.53;4392494;32;20161;-84
2021/07/13 10:07:02;;;;;;;11.25;7.93;;;;;;;38.11;61.19;99131.69;4392840;32;20132;-85
2021/07/13 10:09:29;;;;;;;12.52;8.55;;;;;;;37.89;61.18;99128.81;4369624;32;20082;-84
2021/07/13 10:11:55;;;;;;;9.95;8.07;;;;;;;37.90;61.18;99131.28;4372152;32;20082;-85
2021/07/13 10:14:20;;;;;;;10.55;8.30;;;;;;;37.83;61.17;99130.56;4396214;32;20130;-84
2021/07/13 10:16:46;;;;;;;12.25;8.50;;;;;;;37.87;61.18;99129.06;4392692;32;20162;-85
2021/07/13 10:19:11;;;;;;;9.02;7.72;;;;;;;37.75;61.17;99118.19;4378117;32;20194;-85
2021/07/13 10:21:37;;;;;;;8.77;7.90;;;;;;;37.66;61.16;99119.63;4392411;32;20106;-85
2021/07/13 10:24:03;;;;;;;9.18;8.27;;;;;;;37.82;61.17;99119.94;4378571;32;20391;-85
2021/07/13 10:26:48;;;;;;;7.90;7.10;;;;;;;37.89;61.18;99121.47;4378492;32;20094;-84
2021/07/13 10:29:31;;;;;;;11.10;8.13;;;;;;;38.11;61.19;99110.75;4392325;32;20086;-84
2021/07/13 10:31:57;;;;;;;11.50;8.57;;;;;;;38.23;61.19;99111.53;4392485;32;20202;-85
2021/07/13 10:34:51;;;;;;;9.43;8.52;;;;;;;38.44;61.21;99110.03;4392154;32;20495;-85
2021/07/13 10:37:26;;;;;;;11.00;8.50;;;;;;;38.58;61.20;99113.25;4392353;32;20390;-85
2021/07/13 10:39:52;;;;;;;13.68;8.77;;;;;;;38.66;61.22;99110.97;4391127;32;20167;-85
2021/07/13 10:42:39;;;;;;;8.48;7.60;;;;;;;38.73;61.21;99109.97;4392230;32;20098;-85
2021/07/13 10:45:14;;;;;;;7.70;7.03;;;;;;;38.86;61.23;99106.94;4392187;32;20360;-85
2021/07/13 10:48:02;;;;;;;8.82;7.80;;;;;;;39.03;61.23;99107.72;4378145;32;20114;-85
2021/07/13 10:50:27;;;;;;;16.15;7.85;;;;;;;39.18;61.24;99102.53;4392356;32;20124;-85
2021/07/13 10:52:52;;;;;;;9.90;8.13;;;;;;;39.34;61.25;99106.31;4392137;32;20102;-85
2021/07/13 10:55:30;;;;;;;11.98;8.40;;;;;;;39.24;61.24;99106.97;4392121;32;20226;-85
2021/07/13 10:58:15;;;;;;;11.23;8.80;;;;;;;39.27;61.25;99100.19;4391996;32;20128;-84
2021/07/13 11:00:47;;;;;;;10.57;8.95;;;;;;;39.11;61.24;99107.34;4386243;32;20093;-84
2021/07/13 11:03:31;;;;;;;12.25;9.18;;;;;;;39.06;61.23;99115.41;4392137;32;20102;-84
2021/07/13 11:05:59;;;;;;;9.93;8.05;;;;;;;39.03;61.23;99105.00;4378339;32;20580;-85
2021/07/13 11:11:14;;;;;;;14.35;9.25;;;;;;;39.21;61.24;99096.59;4392129;32;20140;-85
2021/07/13 11:13:39;;;;;;;15.80;10.57;;;;;;;38.87;61.23;99100.41;4378206;32;20090;-85
2021/07/13 11:16:05;;;;;;;11.80;9.55;;;;;;;38.88;61.22;99093.91;4392136;32;20216;-85
2021/07/13 11:18:31;;;;;;;13.85;10.10;;;;;;;39.00;61.23;99090.00;4377675;32;20115;-85
2021/07/13 11:21:18;;;;;;;12.32;10.43;;;;;;;39.15;61.23;99089.44;4390772;32;20110;-84
2021/07/13 11:23:53;;;;;;;12.52;10.00;;;;;;;39.14;61.23;99082.34;4392107;32;20094;-85
2021/07/13 11:26:21;;;;;;;12.63;10.00;;;;;;;39.10;61.24;99083.09;4392017;32;20093;-84